Time;durP1;ratioP1;P1;durP2;ratioP2;P2;SDS_P1;SDS_P2;PMS_P1;PMS_P2;Temp;Humidity;BMP_temperature;BMP_pressure;BME280_temperature;BME280_humidity;BME280_pressure;Samples;Min_cycle;Max_cycle;Signal;HPM_P1;HPM_P2
2024/01/20 00:00:28;;;;;;;3.00;2.40;;;12.20;84.30;;;;;;4975058;28;20180;-1
2024/01/20 00:02:54;;;;;;;2.80;2.47;;;12.20;84.30;;;;;;4976871;28;20197;-1
2024/01/20 00:05:19;;;;;;;3.47;2.80;;;12.20;84.20;;;;;;4976469;28;20171;-2
2024/01/20 00:07:45;;;;;;;3.70;2.90;;;12.20;84.20;;;;;;4976852;28;20206;-2
2024/01/20 00:10:11;;;;;;;3.17;2.70;;;12.20;84.10;;;;;;4992798;28;20181;-1
2024/01/20 00:12:42;;;;;;;4.00;2.90;;;12.20;84.10;;;;;;4975930;28;20189;-1
2024/01/20 00:15:08;;;;;;;3.30;2.93;;;12.20;84.10;;;;;;4974652;28;20186;-1
2024/01/20 00:17:37;;;;;;;4.03;2.77;;;12.20;84.20;;;;;;4992418;28;20175;-1
2024/01/20 00:20:04;;;;;;;3.97;2.97;;;12.20;84.10;;;;;;4991819;28;20175;-2
2024/01/20 00:22:30;;;;;;;4.63;2.57;;;12.20;84.20;;;;;;4992212;28;20256;-1
2024/01/20 00:24:59;;;;;;;3.63;2.70;;;12.20;84.20;;;;;;4991236;28;20323;-2
2024/01/20 00:27:25;;;;;;;4.17;2.80;;;12.20;84.10;;;;;;4992166;28;20577;-1
2024/01/20 00:29:51;;;;;;;3.67;2.87;;;12.20;84.20;;;;;;4991953;28;20227;-1
2024/01/20 00:32:17;;;;;;;3.70;2.77;;;12.20;84.20;;;;;;4993838;28;20239;-1
2024/01/20 00:34:43;;;;;;;4.30;2.63;;;12.20;84.20;;;;;;4992833;28;20190;-1
2024/01/20 00:37:08;;;;;;;3.00;2.70;;;12.20;84.20;;;;;;4976731;28;20256;-1
2024/01/20 00:39:34;;;;;;;4.40;2.80;;;12.20;84.10;;;;;;4992139;28;20264;-1
2024/01/20 00:42:00;;;;;;;2.73;2.33;;;12.20;84.10;;;;;;4974972;28;20255;-1
2024/01/20 00:44:26;;;;;;;3.77;2.77;;;12.20;84.10;;;;;;4974722;28;20613;-1
2024/01/20 00:46:51;;;;;;;2.97;2.50;;;12.10;84.10;;;;;;4975426;28;20333;-2
2024/01/20 00:49:17;;;;;;;3.53;2.77;;;12.20;84.10;;;;;;4992088;28;20170;-2
2024/01/20 00:51:43;;;;;;;3.63;2.67;;;12.10;84.10;;;;;;4991475;28;20178;-1
2024/01/20 00:54:09;;;;;;;3.13;2.60;;;12.10;84.10;;;;;;4992837;28;20212;-1
2024/01/20 00:56:35;;;;;;;3.77;2.60;;;12.10;84.10;;;;;;4991217;28;20230;-1
2024/01/20 00:59:00;;;;;;;3.17;2.77;;;12.10;84.00;;;;;;4972867;28;20179;-1
2024/01/20 01:01:26;;;;;;;3.30;2.77;;;12.10;84.00;;;;;;4971891;28;20205;-2
2024/01/20 01:03:52;;;;;;;4.80;2.67;;;12.10;84.00;;;;;;4972283;28;20182;-2
2024/01/20 01:06:17;;;;;;;3.10;2.60;;;12.10;84.00;;;;;;4972457;28;20180;-1
2024/01/20 01:08:43;;;;;;;4.60;2.57;;;12.10;83.90;;;;;;4972359;28;20198;-1
2024/01/20 01:11:09;;;;;;;3.87;2.70;;;12.10;83.90;;;;;;4990581;28;20172;-1
2024/01/20 01:13:37;;;;;;;3.77;2.40;;;12.10;84.00;;;;;;4975475;28;20170;-1
2024/01/20 01:16:04;;;;;;;3.20;2.60;;;12.10;84.00;;;;;;4974714;28;20170;-2
2024/01/20 01:18:30;;;;;;;3.40;2.40;;;12.10;83.90;;;;;;4974901;28;20179;-1
2024/01/20 01:20:56;;;;;;;3.87;2.47;;;12.10;84.00;;;;;;4973073;28;20241;-1
2024/01/20 01:23:21;;;;;;;3.97;2.80;;;12.10;84.00;;;;;;4974567;28;20177;-1
2024/01/20 01:25:49;;;;;;;3.43;2.97;;;12.10;84.00;;;;;;4991659;28;20175;-2
2024/01/20 01:28:15;;;;;;;3.27;2.60;;;12.10;84.00;;;;;;4991310;28;20663;-1
2024/01/20 01:30:41;;;;;;;3.27;2.53;;;12.10;84.00;;;;;;4973557;28;20178;-1
2024/01/20 01:33:06;;;;;;;2.93;2.63;;;12.10;84.00;;;;;;4990665;28;20289;-1
2024/01/20 01:35:32;;;;;;;3.57;2.63;;;12.10;84.00;;;;;;4973484;28;20174;-2
2024/01/20 01:37:58;;;;;;;2.97;2.63;;;12.10;83.90;;;;;;4990777;28;20184;-1
2024/01/20 01:40:25;;;;;;;2.70;2.30;;;12.10;84.00;;;;;;4973525;28;20210;-2
2024/01/20 01:42:56;;;;;;;3.17;2.60;;;12.10;84.10;;;;;;4991884;28;20182;-2
2024/01/20 01:45:22;;;;;;;2.83;2.33;;;12.10;84.00;;;;;;4975279;28;20262;-1
2024/01/20 01:47:48;;;;;;;3.27;2.20;;;12.10;84.10;;;;;;4992917;28;20197;-1
2024/01/20 01:50:14;;;;;;;2.50;2.23;;;12.10;84.00;;;;;;4992726;28;20175;-2
2024/01/20 01:52:41;;;;;;;3.10;2.37;;;12.10;84.00;;;;;;4975223;28;20227;-2
2024/01/20 01:55:07;;;;;;;2.77;2.57;;;12.10;84.00;;;;;;4993195;28;20201;-1
2024/01/20 01:57:35;;;;;;;3.03;2.63;;;12.00;83.90;;;;;;4992434;28;20169;-1
2024/01/20 02:00:04;;;;;;;3.57;2.33;;;12.00;83.90;;;;;;4974013;28;20177;-1
2024/01/20 02:02:29;;;;;;;3.27;2.20;;;12.00;83.90;;;;;;4973325;28;20484;-1
2024/01/20 02:04:55;;;;;;;3.00;2.30;;;12.00;83.90;;;;;;4990536;28;20192;-1
2024/01/20 02:07:22;;;;;;;2.87;2.50;;;12.00;83.80;;;;;;4972016;28;20404;-1
2024/01/20 02:09:48;;;;;;;3.20;2.33;;;12.10;83.80;;;;;;4988762;28;20551;-2
2024/01/20 02:12:14;;;;;;;3.40;2.47;;;12.00;83.90;;;;;;4989309;28;20235;-1
2024/01/20 02:14:42;;;;;;;3.50;2.43;;;12.00;83.90;;;;;;4989089;28;20166;-1
2024/01/20 02:17:08;;;;;;;2.87;2.60;;;12.10;83.80;;;;;;4989499;28;20260;-1
2024/01/20 02:19:39;;;;;;;2.83;2.40;;;12.00;83.80;;;;;;4972822;28;20181;-2
2024/01/20 02:22:10;;;;;;;3.20;2.70;;;12.00;83.70;;;;;;4973067;28;20294;-1
2024/01/20 02:24:38;;;;;;;3.27;2.63;;;12.00;83.70;;;;;;4991612;28;20173;-2
2024/01/20 02:27:03;;;;;;;2.97;2.27;;;12.00;83.80;;;;;;4974436;28;20198;-1
2024/01/20 02:29:29;;;;;;;2.90;2.50;;;12.00;83.70;;;;;;4972620;28;20212;-1
2024/01/20 02:31:55;;;;;;;2.43;2.23;;;12.00;83.70;;;;;;4991725;28;20624;-2
2024/01/20 02:34:21;;;;;;;2.97;2.40;;;12.00;83.60;;;;;;4974924;28;20259;-1
2024/01/20 02:36:46;;;;;;;3.07;2.60;;;12.00;83.60;;;;;;4973960;28;20178;-1
2024/01/20 02:39:12;;;;;;;2.40;2.20;;;12.00;83.60;;;;;;4973941;28;20559;-1
2024/01/20 02:41:38;;;;;;;3.30;2.37;;;12.00;83.60;;;;;;4991485;28;20429;-1
2024/01/20 02:44:08;;;;;;;2.50;2.30;;;12.00;83.50;;;;;;4974361;28;20177;-2
2024/01/20 02:46:34;;;;;;;2.87;2.37;;;12.00;83.60;;;;;;4975053;28;20177;-3
2024/01/20 02:49:00;;;;;;;2.83;2.20;;;12.00;83.50;;;;;;4974914;28;20210;-1
2024/01/20 02:51:25;;;;;;;2.80;2.23;;;12.00;83.50;;;;;;4977300;28;20198;-2
2024/01/20 02:53:51;;;;;;;2.40;2.13;;;12.00;83.40;;;;;;4995639;28;20166;-1
2024/01/20 02:56:17;;;;;;;3.90;2.30;;;12.00;83.40;;;;;;4977993;28;20186;-1
2024/01/20 02:58:43;;;;;;;3.53;2.23;;;12.00;83.20;;;;;;4995002;28;20184;-2
2024/01/20 03:01:08;;;;;;;2.60;2.20;;;12.00;83.40;;;;;;4977161;28;20193;-1
2024/01/20 03:03:34;;;;;;;3.63;2.20;;;12.00;83.30;;;;;;4994916;28;20217;-2
2024/01/20 03:05:59;;;;;;;2.97;2.67;;;12.00;83.30;;;;;;4977514;28;20246;-2
2024/01/20 03:08:25;;;;;;;2.57;2.10;;;11.90;83.10;;;;;;4977403;28;20290;-2
2024/01/20 03:10:51;;;;;;;2.83;2.30;;;11.90;83.10;;;;;;4995381;28;20534;-2
2024/01/20 03:13:17;;;;;;;3.10;2.27;;;11.90;83.00;;;;;;4994453;28;20170;-2
2024/01/20 03:15:42;;;;;;;2.13;1.93;;;12.00;83.10;;;;;;4977456;28;20274;-1
2024/01/20 03:18:10;;;;;;;3.43;2.63;;;11.90;83.00;;;;;;4995164;28;20185;-2
2024/01/20 03:20:36;;;;;;;2.23;2.03;;;11.90;83.00;;;;;;4976622;28;20242;-1
2024/01/20 03:23:02;;;;;;;2.57;2.37;;;11.90;82.90;;;;;;4993620;28;20189;-1
2024/01/20 03:25:27;;;;;;;2.17;1.97;;;11.90;83.00;;;;;;4994046;28;20183;-1
2024/01/20 03:27:53;;;;;;;2.70;2.43;;;11.90;82.90;;;;;;4976696;28;20521;-2
2024/01/20 03:30:20;;;;;;;3.50;2.00;;;11.90;82.90;;;;;;4976649;28;20479;-1
2024/01/20 03:32:46;;;;;;;2.33;2.00;;;11.90;83.50;;;;;;4976470;28;20188;-2
2024/01/20 03:35:12;;;;;;;2.37;2.10;;;11.90;82.90;;;;;;4977340;28;20221;-1
2024/01/20 03:37:38;;;;;;;2.47;2.10;;;11.90;82.80;;;;;;4978358;28;20224;-1
2024/01/20 03:40:04;;;;;;;2.97;2.23;;;11.90;82.80;;;;;;4977777;28;20184;-1
2024/01/20 03:42:30;;;;;;;2.40;2.20;;;11.90;82.80;;;;;;4995286;28;20396;-1
2024/01/20 03:44:56;;;;;;;2.33;2.10;;;11.90;82.80;;;;;;4994467;28;20187;-1
2024/01/20 03:47:21;;;;;;;2.70;2.10;;;11.90;82.80;;;;;;4994222;28;20198;-1
2024/01/20 03:49:47;;;;;;;2.10;1.90;;;11.90;82.80;;;;;;4994493;28;20170;-2
2024/01/20 03:52:13;;;;;;;2.30;2.00;;;11.90;82.80;;;;;;4978358;28;20241;-1
2024/01/20 03:54:39;;;;;;;2.30;2.10;;;11.90;82.90;;;;;;4978157;28;20565;-1
2024/01/20 03:57:05;;;;;;;2.40;2.20;;;11.90;82.90;;;;;;4994503;28;20249;-1
2024/01/20 03:59:31;;;;;;;3.00;2.30;;;11.90;82.90;;;;;;4975824;28;20283;-2
2024/01/20 04:01:56;;;;;;;2.60;1.87;;;11.90;82.80;;;;;;4977024;28;20300;-1
2024/01/20 04:04:22;;;;;;;2.90;2.20;;;11.80;82.80;;;;;;4994173;28;20232;-1
2024/01/20 04:06:48;;;;;;;2.37;1.93;;;11.90;82.80;;;;;;4993573;28;20284;-1
2024/01/20 04:09:14;;;;;;;2.63;2.10;;;11.80;82.70;;;;;;4994505;28;20182;-2
2024/01/20 04:11:39;;;;;;;1.80;1.70;;;11.80;82.70;;;;;;4994464;28;20177;-1
2024/01/20 04:14:05;;;;;;;2.47;2.00;;;11.80;82.70;;;;;;4994695;28;20176;-1
2024/01/20 04:16:32;;;;;;;2.00;1.80;;;11.80;82.70;;;;;;4994526;28;20297;-2
2024/01/20 04:18:57;;;;;;;2.60;2.03;;;11.90;82.70;;;;;;4994141;28;20483;-1
2024/01/20 04:21:23;;;;;;;2.30;1.80;;;11.90;82.60;;;;;;4993310;28;20594;-2
2024/01/20 04:23:52;;;;;;;2.43;2.10;;;11.80;82.50;;;;;;4976951;28;20189;-1
2024/01/20 04:26:18;;;;;;;2.47;1.87;;;11.80;82.50;;;;;;4994580;28;20455;-1
2024/01/20 04:28:43;;;;;;;2.30;1.97;;;11.80;82.50;;;;;;4993892;28;20217;-1
2024/01/20 04:31:09;;;;;;;2.20;1.83;;;11.80;82.50;;;;;;4993512;28;20175;-1
2024/01/20 04:33:36;;;;;;;2.23;2.03;;;11.80;82.40;;;;;;4993922;28;20188;-1
2024/01/20 04:36:02;;;;;;;2.10;1.90;;;11.80;82.40;;;;;;4976485;28;20190;-1
2024/01/20 04:38:28;;;;;;;2.30;2.00;;;11.80;82.40;;;;;;4992940;28;20279;-1
2024/01/20 04:40:54;;;;;;;2.40;2.03;;;11.80;82.30;;;;;;4975242;28;20281;-1
2024/01/20 04:43:20;;;;;;;2.00;1.70;;;11.80;82.30;;;;;;4975727;28;20198;-2
2024/01/20 04:45:46;;;;;;;2.23;2.03;;;11.80;82.30;;;;;;4992719;28;20394;-2
2024/01/20 04:48:11;;;;;;;2.40;2.00;;;11.80;82.30;;;;;;4975726;28;20207;-1
2024/01/20 04:50:37;;;;;;;2.43;2.20;;;11.80;82.20;;;;;;4993184;28;20172;-1
2024/01/20 04:53:03;;;;;;;1.80;1.60;;;11.80;82.10;;;;;;4976028;28;20462;-1
2024/01/20 04:55:29;;;;;;;2.07;1.80;;;11.80;82.20;;;;;;4976594;28;20174;-1
2024/01/20 04:57:54;;;;;;;2.20;2.00;;;11.80;82.70;;;;;;4993187;28;20174;-2
2024/01/20 05:00:21;;;;;;;2.33;1.90;;;11.80;82.10;;;;;;4973918;28;20186;-1
2024/01/20 05:02:47;;;;;;;2.70;1.90;;;11.80;82.20;;;;;;4974742;28;20198;-1
2024/01/20 05:05:13;;;;;;;2.50;1.87;;;11.70;82.10;;;;;;4974179;28;20235;-2
2024/01/20 05:07:38;;;;;;;1.93;1.73;;;11.80;82.10;;;;;;4973888;28;20221;-2
2024/01/20 05:10:04;;;;;;;3.30;2.03;;;11.80;82.10;;;;;;4973931;28;20175;-1
2024/01/20 05:12:30;;;;;;;2.07;1.83;;;11.70;81.90;;;;;;4974149;28;20181;-1
2024/01/20 05:14:57;;;;;;;2.63;2.10;;;11.70;81.90;;;;;;4975248;28;20181;-1
2024/01/20 05:17:23;;;;;;;2.33;2.00;;;11.70;81.90;;;;;;4991266;28;20581;-1
2024/01/20 05:19:48;;;;;;;2.50;1.97;;;11.70;81.80;;;;;;4974951;28;20227;-1
2024/01/20 05:22:17;;;;;;;2.20;1.90;;;11.70;81.60;;;;;;4992259;28;20278;-2
2024/01/20 05:24:42;;;;;;;2.20;1.87;;;11.70;81.50;;;;;;4975682;28;20183;-2
2024/01/20 05:27:08;;;;;;;2.40;1.87;;;11.70;81.40;;;;;;4976203;28;20211;-1
2024/01/20 05:29:34;;;;;;;2.03;1.77;;;11.70;81.30;;;;;;4991921;28;20175;-2
2024/01/20 05:32:00;;;;;;;2.20;2.00;;;11.70;81.30;;;;;;4991931;28;20554;-2
2024/01/20 05:34:26;;;;;;;2.43;2.07;;;11.70;81.30;;;;;;4991995;28;20175;-1
2024/01/20 05:36:52;;;;;;;2.80;2.07;;;11.70;81.20;;;;;;4990444;28;20538;-1
2024/01/20 05:39:17;;;;;;;2.30;1.87;;;11.70;81.20;;;;;;4975483;28;20260;-1
2024/01/20 05:41:43;;;;;;;2.17;1.83;;;11.70;81.10;;;;;;4992359;28;20165;-1
2024/01/20 05:44:09;;;;;;;1.93;1.73;;;11.70;81.00;;;;;;4975433;28;20203;-1
2024/01/20 05:46:35;;;;;;;2.03;1.83;;;11.70;80.90;;;;;;4976397;28;20189;-1
2024/01/20 05:49:00;;;;;;;3.10;2.10;;;11.70;80.90;;;;;;4991430;28;20206;-1
2024/01/20 05:51:26;;;;;;;2.27;1.87;;;11.70;80.80;;;;;;4992851;28;20178;-1
2024/01/20 05:53:52;;;;;;;2.53;2.00;;;11.70;80.70;;;;;;4973105;28;20182;-1
2024/01/20 05:56:20;;;;;;;2.73;2.00;;;11.70;80.80;;;;;;4974768;28;20218;-1
2024/01/20 05:58:46;;;;;;;2.87;2.10;;;11.60;80.70;;;;;;4974603;28;20591;-1
2024/01/20 06:01:12;;;;;;;1.93;1.70;;;11.70;80.80;;;;;;4973745;28;20207;-1
2024/01/20 06:03:37;;;;;;;1.97;1.60;;;11.60;80.60;;;;;;4991694;28;20177;-2
2024/01/20 06:06:04;;;;;;;2.50;1.80;;;11.60;80.60;;;;;;4991894;28;20504;-1
2024/01/20 06:08:30;;;;;;;2.90;1.53;;;11.60;80.60;;;;;;4975067;28;20275;-1
2024/01/20 06:10:56;;;;;;;2.50;1.60;;;11.60;80.60;;;;;;4992435;28;20493;-2
2024/01/20 06:13:21;;;;;;;2.17;1.87;;;11.60;80.50;;;;;;4992236;28;20171;-2
2024/01/20 06:15:47;;;;;;;1.93;1.70;;;11.60;80.50;;;;;;4992568;28;20541;-2
2024/01/20 06:18:13;;;;;;;2.10;1.77;;;11.60;80.50;;;;;;4990460;28;20179;-1
2024/01/20 06:20:39;;;;;;;2.13;1.80;;;11.60;80.40;;;;;;4991564;28;20241;-1
2024/01/20 06:23:04;;;;;;;1.90;1.60;;;11.60;80.40;;;;;;4990916;28;20214;-1
2024/01/20 06:25:30;;;;;;;2.00;1.70;;;11.60;80.40;;;;;;4973630;28;20223;-1
2024/01/20 06:27:55;;;;;;;2.20;1.67;;;11.60;80.30;;;;;;4991073;28;20301;-1
2024/01/20 06:30:22;;;;;;;1.90;1.70;;;11.60;80.40;;;;;;4991609;28;20258;-1
2024/01/20 06:32:48;;;;;;;2.00;1.80;;;11.60;80.30;;;;;;4973002;28;20399;-1
2024/01/20 06:35:14;;;;;;;1.93;1.73;;;11.60;80.30;;;;;;4972851;28;20175;-1
2024/01/20 06:37:39;;;;;;;1.90;1.70;;;11.60;80.30;;;;;;4990663;28;20187;-1
2024/01/20 06:40:06;;;;;;;2.03;1.70;;;11.60;80.30;;;;;;4988857;28;20174;-1
2024/01/20 06:42:32;;;;;;;2.10;1.90;;;11.60;80.20;;;;;;4972006;28;20183;-1
2024/01/20 06:44:57;;;;;;;2.10;1.73;;;11.60;80.20;;;;;;4989763;28;20225;-1
2024/01/20 06:47:23;;;;;;;2.73;1.90;;;11.60;80.00;;;;;;4974112;28;20217;-2
2024/01/20 06:49:50;;;;;;;2.33;1.70;;;11.60;80.00;;;;;;4991867;28;20175;-1
2024/01/20 06:52:16;;;;;;;2.27;1.97;;;11.50;80.00;;;;;;4991725;28;20179;-1
2024/01/20 06:54:42;;;;;;;2.00;1.80;;;11.60;79.90;;;;;;4991857;28;20176;-1
2024/01/20 06:57:07;;;;;;;2.17;1.87;;;11.50;79.80;;;;;;4974641;28;20286;-1
2024/01/20 06:59:33;;;;;;;2.53;1.87;;;11.50;79.80;;;;;;4974260;28;20590;-2
2024/01/20 07:02:00;;;;;;;1.90;1.70;;;11.50;79.70;;;;;;4973738;28;20259;-1
2024/01/20 07:04:25;;;;;;;2.40;1.80;;;11.50;79.60;;;;;;4973443;28;20228;-2
2024/01/20 07:06:51;;;;;;;3.37;1.70;;;11.50;79.50;;;;;;4990429;28;20185;-1
2024/01/20 07:09:17;;;;;;;2.13;1.93;;;11.50;79.50;;;;;;4973382;28;20177;-1
2024/01/20 07:11:42;;;;;;;1.90;1.53;;;11.50;79.40;;;;;;4989979;28;20536;-1
2024/01/20 07:14:08;;;;;;;2.60;1.97;;;11.50;79.40;;;;;;4970645;28;20262;-1
2024/01/20 07:16:34;;;;;;;1.90;1.70;;;11.50;79.50;;;;;;4988406;28;20178;-1
2024/01/20 07:19:00;;;;;;;2.10;1.90;;;11.50;79.20;;;;;;4972071;28;20232;-1
2024/01/20 07:21:25;;;;;;;2.00;1.80;;;11.50;79.30;;;;;;4989031;28;20627;-1
2024/01/20 07:23:51;;;;;;;2.03;1.87;;;11.50;79.20;;;;;;4972080;28;20207;-2
2024/01/20 07:26:17;;;;;;;2.13;1.73;;;11.50;79.30;;;;;;4989382;28;20213;-1
2024/01/20 07:28:43;;;;;;;2.10;1.80;;;11.50;79.20;;;;;;4973245;28;20237;-1
2024/01/20 07:31:08;;;;;;;2.23;2.03;;;11.50;79.20;;;;;;4973501;28;20176;-1
2024/01/20 07:33:34;;;;;;;1.90;1.70;;;11.50;79.10;;;;;;4972162;28;20471;-1
2024/01/20 07:36:00;;;;;;;1.70;1.60;;;11.50;79.00;;;;;;4991637;28;20579;-1
2024/01/20 07:38:26;;;;;;;1.93;1.73;;;11.50;79.00;;;;;;4975147;28;20188;-1
2024/01/20 07:40:53;;;;;;;2.33;1.77;;;11.50;79.00;;;;;;4976522;28;20178;-1
2024/01/20 07:43:20;;;;;;;1.83;1.63;;;11.50;78.90;;;;;;4992815;28;20415;-2
2024/01/20 07:45:46;;;;;;;2.10;1.90;;;11.50;78.80;;;;;;4974454;28;20694;-2
2024/01/20 07:48:11;;;;;;;1.87;1.70;;;11.50;78.80;;;;;;4974664;28;20206;-2
2024/01/20 07:50:37;;;;;;;2.00;1.67;;;11.50;78.80;;;;;;4992257;28;20173;-2
2024/01/20 07:53:03;;;;;;;2.53;2.10;;;11.50;78.70;;;;;;4992027;28;20164;-1
2024/01/20 07:55:29;;;;;;;1.90;1.67;;;11.50;78.60;;;;;;4991847;28;20215;-2
2024/01/20 07:57:55;;;;;;;2.00;1.80;;;11.50;78.50;;;;;;4975656;28;20174;-2
2024/01/20 08:00:21;;;;;;;2.00;1.80;;;11.50;78.50;;;;;;4976698;28;20180;-2
2024/01/20 08:02:47;;;;;;;2.17;1.80;;;11.50;78.40;;;;;;4976479;28;20250;-2
2024/01/20 08:05:13;;;;;;;2.40;2.20;;;11.50;78.40;;;;;;4975521;28;20347;-2
2024/01/20 08:07:38;;;;;;;2.07;1.80;;;11.50;78.20;;;;;;4993518;28;20211;-1
2024/01/20 08:10:05;;;;;;;1.90;1.70;;;11.50;78.20;;;;;;4992961;28;20167;-1
2024/01/20 08:12:31;;;;;;;2.00;1.80;;;11.50;78.10;;;;;;4993477;28;20584;-2
2024/01/20 08:14:57;;;;;;;1.87;1.70;;;11.50;78.00;;;;;;4992405;28;20179;-1
2024/01/20 08:17:23;;;;;;;1.77;1.60;;;11.50;77.90;;;;;;4975875;28;20177;-1
2024/01/20 08:19:51;;;;;;;2.10;1.90;;;11.50;77.80;;;;;;4990912;28;20178;-2
2024/01/20 08:22:17;;;;;;;1.93;1.73;;;11.50;77.70;;;;;;4972583;28;20179;-1
2024/01/20 08:24:43;;;;;;;2.50;1.90;;;11.60;77.50;;;;;;4969556;28;20186;-1
2024/01/20 08:27:09;;;;;;;3.17;1.93;;;11.60;77.10;;;;;;4987815;28;20176;-1
2024/01/20 08:29:35;;;;;;;2.10;1.70;;;11.60;77.00;;;;;;4988713;28;20760;-1
2024/01/20 08:32:01;;;;;;;3.03;1.70;;;11.60;76.80;;;;;;4989261;28;20471;-1
2024/01/20 08:34:27;;;;;;;1.70;1.50;;;11.60;76.60;;;;;;4989272;28;20175;-2
2024/01/20 08:36:52;;;;;;;1.97;1.77;;;11.60;76.40;;;;;;4972703;28;20219;-1
2024/01/20 08:39:21;;;;;;;2.23;1.83;;;11.60;76.10;;;;;;4990535;28;20565;-1
2024/01/20 08:41:47;;;;;;;2.33;1.80;;;11.70;75.80;;;;;;4990472;28;20189;-2
2024/01/20 08:44:14;;;;;;;1.90;1.63;;;11.90;74.80;;;;;;4988962;28;20174;-1
2024/01/20 08:46:39;;;;;;;2.17;1.80;;;12.00;73.80;;;;;;4972935;28;20243;-2
2024/01/20 08:49:06;;;;;;;2.40;1.83;;;12.30;72.50;;;;;;4990974;28;20208;-1
2024/01/20 08:51:32;;;;;;;2.03;1.83;;;12.70;70.50;;;;;;4990329;28;20429;-1
2024/01/20 08:53:57;;;;;;;2.33;1.90;;;13.10;68.30;;;;;;4971869;28;20185;-2
2024/01/20 08:56:23;;;;;;;2.10;1.90;;;13.50;65.90;;;;;;4972870;28;20273;-2
2024/01/20 08:58:49;;;;;;;2.40;2.20;;;13.80;63.80;;;;;;4969919;28;20512;-2
2024/01/20 09:01:16;;;;;;;3.43;3.13;;;14.00;62.30;;;;;;4986863;28;20334;-2
2024/01/20 09:03:42;;;;;;;2.43;2.00;;;14.20;61.20;;;;;;4987538;28;20294;-2
2024/01/20 09:06:07;;;;;;;2.07;1.70;;;14.40;60.60;;;;;;4987762;28;20171;-2
2024/01/20 09:08:33;;;;;;;2.07;1.83;;;14.50;60.10;;;;;;4970333;28;20291;-2
2024/01/20 09:10:59;;;;;;;2.50;1.87;;;14.60;59.80;;;;;;4969075;28;20590;-2
2024/01/20 09:13:25;;;;;;;2.17;1.93;;;14.60;59.50;;;;;;4970248;28;20183;-2
2024/01/20 09:15:51;;;;;;;2.27;1.90;;;14.60;59.20;;;;;;4988836;28;20163;-2
2024/01/20 09:18:17;;;;;;;3.40;1.90;;;14.70;59.10;;;;;;4971083;28;20179;-2
2024/01/20 09:20:43;;;;;;;2.30;1.83;;;14.70;58.90;;;;;;4969124;28;20601;-2
2024/01/20 09:23:09;;;;;;;2.33;2.00;;;14.80;58.70;;;;;;4987914;28;20183;-2
2024/01/20 09:25:34;;;;;;;2.20;1.97;;;14.80;58.60;;;;;;4970764;28;20170;-2
2024/01/20 09:28:03;;;;;;;2.57;1.90;;;14.90;58.50;;;;;;4987307;28;20294;-2
2024/01/20 09:30:29;;;;;;;2.60;1.93;;;14.90;58.40;;;;;;4988501;28;20170;-2
2024/01/20 09:32:54;;;;;;;6.47;2.00;;;14.70;58.50;;;;;;4986053;28;20193;-2
2024/01/20 09:35:20;;;;;;;2.90;2.13;;;14.40;58.80;;;;;;4986815;28;20219;-3
2024/01/20 09:37:46;;;;;;;3.60;2.23;;;14.10;59.50;;;;;;4986820;28;20567;-2
2024/01/20 09:40:12;;;;;;;3.47;2.20;;;13.80;60.60;;;;;;4986373;28;20467;-2
2024/01/20 09:42:38;;;;;;;3.97;1.90;;;13.60;61.80;;;;;;4969321;28;20182;-2
2024/01/20 09:45:04;;;;;;;2.97;2.00;;;13.40;63.00;;;;;;4987523;28;20177;-2
2024/01/20 09:47:30;;;;;;;4.30;2.13;;;13.20;64.30;;;;;;4989969;28;20221;-2
2024/01/20 09:49:56;;;;;;;2.80;2.00;;;13.00;65.40;;;;;;4994852;28;20445;-3
2024/01/20 09:52:29;;;;;;;4.53;1.90;;;12.90;66.50;;;;;;4994119;28;20171;-2
2024/01/20 09:55:08;;;;;;;5.17;2.03;;;12.80;67.40;;;;;;4988390;28;20171;-2
2024/01/20 09:57:36;;;;;;;4.80;2.17;;;12.70;68.20;;;;;;4985539;28;20206;-2
2024/01/20 10:00:02;;;;;;;3.27;1.90;;;12.70;68.80;;;;;;4985942;28;20170;-2
2024/01/20 10:02:29;;;;;;;4.23;1.93;;;12.70;69.30;;;;;;4986079;28;20186;-2
2024/01/20 10:04:59;;;;;;;4.47;2.30;;;12.70;69.60;;;;;;4967821;28;20539;-2
2024/01/20 10:07:28;;;;;;;3.13;2.23;;;12.70;70.00;;;;;;4986801;28;20586;-2
2024/01/20 10:09:54;;;;;;;3.70;2.27;;;12.70;70.10;;;;;;4986857;28;20193;-2
2024/01/20 10:12:20;;;;;;;3.37;2.10;;;12.70;70.20;;;;;;4970043;28;20479;-2
2024/01/20 10:14:45;;;;;;;2.60;2.00;;;12.70;70.50;;;;;;4987343;28;20197;-2
2024/01/20 10:17:11;;;;;;;4.13;2.27;;;12.80;70.40;;;;;;4987455;28;20174;-2
2024/01/20 10:19:38;;;;;;;2.27;1.97;;;12.80;70.40;;;;;;4986852;28;20571;-3
2024/01/20 10:22:08;;;;;;;3.07;1.83;;;12.80;70.20;;;;;;4987887;28;20227;-3
2024/01/20 10:24:34;;;;;;;3.30;2.23;;;12.90;70.30;;;;;;4987111;28;20234;-2
2024/01/20 10:27:00;;;;;;;7.57;2.50;;;12.90;70.40;;;;;;4987191;28;20260;-2
2024/01/20 10:29:26;;;;;;;3.63;1.77;;;12.90;70.50;;;;;;4966630;28;20186;-2
2024/01/20 10:31:52;;;;;;;3.23;2.20;;;12.90;70.70;;;;;;4985524;28;20170;-2
2024/01/20 10:34:19;;;;;;;3.63;1.87;;;12.90;70.70;;;;;;4986808;28;20171;-4
2024/01/20 10:36:48;;;;;;;3.93;2.10;;;12.90;70.80;;;;;;4967679;28;20239;-2
2024/01/20 10:39:19;;;;;;;3.10;2.23;;;12.90;70.90;;;;;;4951242;28;20194;-3
2024/01/20 10:41:48;;;;;;;4.83;2.00;;;12.90;71.00;;;;;;4965549;28;20510;-2
2024/01/20 10:44:20;;;;;;;3.13;1.97;;;12.90;71.10;;;;;;4949584;28;20183;-3
2024/01/20 10:46:49;;;;;;;2.90;2.20;;;13.00;71.20;;;;;;4966680;28;20167;-2
2024/01/20 10:49:19;;;;;;;5.03;2.13;;;13.00;71.30;;;;;;4948796;28;20217;-3
2024/01/20 10:51:46;;;;;;;2.80;2.20;;;13.00;71.20;;;;;;4965667;28;20506;-3
2024/01/20 10:54:13;;;;;;;3.23;2.07;;;13.00;71.50;;;;;;4968245;28;20168;-2
2024/01/20 10:56:39;;;;;;;10.83;2.30;;;13.00;71.70;;;;;;4968016;28;20560;-2
2024/01/20 10:59:17;;;;;;;4.20;2.13;;;13.00;71.80;;;;;;4968833;28;20452;-3
2024/01/20 11:01:44;;;;;;;3.07;1.83;;;13.00;72.00;;;;;;4968240;28;20179;-2
2024/01/20 11:04:10;;;;;;;2.77;1.93;;;13.00;72.00;;;;;;4949660;28;20287;-2
2024/01/20 11:06:36;;;;;;;4.40;2.20;;;13.00;72.00;;;;;;4965439;28;20342;-2
2024/01/20 11:09:02;;;;;;;3.67;1.70;;;13.00;72.10;;;;;;4966621;28;20695;-2
2024/01/20 11:11:34;;;;;;;3.40;2.10;;;13.00;72.20;;;;;;4951927;28;20324;-3
2024/01/20 11:14:00;;;;;;;3.47;1.97;;;13.00;72.50;;;;;;4951823;28;20167;-2
2024/01/20 11:16:32;;;;;;;4.60;2.13;;;13.10;72.50;;;;;;4968152;28;20455;-3
2024/01/20 11:19:11;;;;;;;2.53;2.10;;;13.00;72.50;;;;;;4953158;28;20210;-2
2024/01/20 11:21:37;;;;;;;3.60;2.07;;;13.10;72.70;;;;;;4953787;28;20212;-2
2024/01/20 11:24:06;;;;;;;3.30;2.10;;;13.10;72.80;;;;;;4990317;28;20173;-2
2024/01/20 11:26:33;;;;;;;7.63;2.03;;;13.10;73.10;;;;;;4978663;28;20182;-2
2024/01/20 11:29:01;;;;;;;2.20;2.00;;;13.00;73.10;;;;;;4973642;28;20263;-2
2024/01/20 11:31:30;;;;;;;2.80;1.90;;;13.10;73.10;;;;;;4988305;28;20347;-2
2024/01/20 11:33:58;;;;;;;4.00;1.90;;;13.10;73.50;;;;;;4989100;28;20211;-2
2024/01/20 11:36:28;;;;;;;6.27;2.03;;;13.10;74.00;;;;;;4988557;28;20192;-2
2024/01/20 11:38:56;;;;;;;3.60;1.90;;;13.00;74.20;;;;;;4987555;28;20176;-2
2024/01/20 11:41:21;;;;;;;3.53;2.20;;;13.10;74.20;;;;;;4969859;28;20311;-2
2024/01/20 11:43:47;;;;;;;4.80;2.13;;;13.10;74.30;;;;;;4969656;28;20690;-3
2024/01/20 11:46:14;;;;;;;3.40;2.07;;;13.10;74.40;;;;;;4971733;28;20182;-3
2024/01/20 11:48:40;;;;;;;2.30;1.93;;;13.10;74.40;;;;;;4986871;28;20233;-3
2024/01/20 11:51:07;;;;;;;7.00;2.33;;;13.10;74.30;;;;;;4971839;28;20217;-2
2024/01/20 11:53:33;;;;;;;2.80;2.10;;;13.10;74.60;;;;;;4989249;28;20170;-2
2024/01/20 11:55:59;;;;;;;5.13;2.10;;;13.10;74.70;;;;;;4972346;28;20433;-2
2024/01/20 11:58:26;;;;;;;6.30;2.00;;;13.10;74.90;;;;;;4970595;28;20589;-2
2024/01/20 12:00:54;;;;;;;2.80;1.77;;;13.10;75.30;;;;;;4986396;28;20181;-2
2024/01/20 12:03:20;;;;;;;6.80;2.50;;;13.20;75.20;;;;;;4970929;28;20544;-2
2024/01/20 12:05:46;;;;;;;4.67;2.00;;;13.20;74.40;;;;;;4986736;28;20545;-2
2024/01/20 12:08:13;;;;;;;3.57;2.03;;;13.20;73.50;;;;;;4969961;28;20674;-3
2024/01/20 12:10:42;;;;;;;5.10;1.90;;;13.20;72.90;;;;;;4986624;28;20165;-2
2024/01/20 12:13:10;;;;;;;5.93;2.10;;;13.20;72.00;;;;;;4971701;28;20173;-2
2024/01/20 12:15:36;;;;;;;3.30;1.97;;;13.20;71.50;;;;;;4972272;28;20188;-2
2024/01/20 12:18:03;;;;;;;4.00;2.07;;;13.20;71.00;;;;;;4989888;28;20201;-2
2024/01/20 12:20:29;;;;;;;4.47;2.10;;;13.20;70.40;;;;;;4969710;28;20204;-2
2024/01/20 12:23:00;;;;;;;3.03;2.10;;;13.20;69.80;;;;;;4970209;28;20287;-2
2024/01/20 12:25:29;;;;;;;3.87;2.23;;;13.20;69.30;;;;;;4987283;28;20600;-2
2024/01/20 12:27:57;;;;;;;4.13;1.93;;;13.30;68.90;;;;;;4987367;28;20253;-2
2024/01/20 12:30:23;;;;;;;4.07;2.10;;;13.30;68.50;;;;;;4987039;28;20202;-2
2024/01/20 12:32:49;;;;;;;4.40;2.17;;;13.30;67.90;;;;;;4970466;28;20532;-2
2024/01/20 12:35:15;;;;;;;4.17;2.10;;;13.30;67.50;;;;;;4980788;28;20175;-2
2024/01/20 12:37:40;;;;;;;5.70;1.97;;;13.30;67.10;;;;;;4976332;28;20193;-2
2024/01/20 12:40:07;;;;;;;6.40;2.30;;;13.30;66.70;;;;;;4975378;28;20210;-2
2024/01/20 12:42:34;;;;;;;3.23;1.90;;;13.30;66.30;;;;;;4949484;28;20260;-3
2024/01/20 12:45:00;;;;;;;3.30;2.00;;;13.30;65.80;;;;;;4949247;28;20183;-2
2024/01/20 12:47:26;;;;;;;2.67;2.20;;;13.30;65.60;;;;;;4966430;28;20280;-2
2024/01/20 12:49:52;;;;;;;4.13;2.10;;;13.30;65.30;;;;;;4966996;28;20189;-2
2024/01/20 12:52:18;;;;;;;3.60;1.87;;;13.30;65.10;;;;;;4949434;28;20683;-2